createdAt,value
2023-01-29T00:02:06.683Z,-1.80
2023-01-29T00:04:35.316Z,-1.80
2023-01-29T00:07:02.245Z,-1.80
2023-01-29T00:09:29.137Z,-1.80
2023-01-29T00:11:56.045Z,-1.80
2023-01-29T00:16:50.142Z,-1.80
2023-01-29T00:19:17.526Z,-1.80
2023-01-29T00:21:45.351Z,-1.80
2023-01-29T00:24:15.410Z,-1.90
2023-01-29T00:26:43.132Z,-2.00
2023-01-29T00:29:10.114Z,-2.00
2023-01-29T00:31:37.035Z,-2.10
2023-01-29T00:34:04.081Z,-2.00
2023-01-29T00:36:30.968Z,-2.00
2023-01-29T00:39:02.509Z,-2.00
2023-01-29T00:41:50.248Z,-2.00
2023-01-29T00:47:28.392Z,-2.10
2023-01-29T00:49:55.246Z,-2.00
2023-01-29T00:52:24.545Z,-2.00
2023-01-29T00:54:55.534Z,-2.10
2023-01-29T00:57:22.625Z,-2.20
2023-01-29T00:59:49.219Z,-2.30
2023-01-29T01:02:34.435Z,-2.40
2023-01-29T01:05:02.424Z,-2.50
2023-01-29T01:07:29.442Z,-2.50
2023-01-29T01:10:15.229Z,-2.50
2023-01-29T01:12:41.988Z,-2.50
2023-01-29T01:15:08.776Z,-2.50
2023-01-29T01:17:35.617Z,-2.50
2023-01-29T01:20:02.715Z,-2.50
2023-01-29T01:22:29.266Z,-2.50
2023-01-29T01:24:55.789Z,-2.50
2023-01-29T01:27:22.567Z,-2.60
2023-01-29T01:29:49.119Z,-2.60
2023-01-29T01:32:15.916Z,-2.70
2023-01-29T01:34:42.519Z,-2.60
2023-01-29T01:37:08.978Z,-2.60
2023-01-29T01:39:35.511Z,-2.60
2023-01-29T01:42:02.021Z,-2.70
2023-01-29T01:47:25.134Z,-2.70
2023-01-29T01:49:52.477Z,-2.70
2023-01-29T01:52:19.947Z,-2.70
2023-01-29T01:54:46.771Z,-2.60
2023-01-29T01:57:16.219Z,-2.50
2023-01-29T01:59:48.305Z,-2.40
2023-01-29T02:02:34.692Z,-2.40
2023-01-29T02:05:20.193Z,-2.40
2023-01-29T02:08:07.670Z,-2.40
2023-01-29T02:10:41.397Z,-2.40
2023-01-29T02:13:08.510Z,-2.50
2023-01-29T02:15:35.118Z,-2.60
2023-01-29T02:18:01.743Z,-2.60
2023-01-29T02:20:29.602Z,-2.70
2023-01-29T02:23:16.060Z,-2.80
2023-01-29T02:25:56.417Z,-2.80
2023-01-29T02:28:22.983Z,-2.80
2023-01-29T02:31:09.867Z,-2.90
2023-01-29T02:33:42.483Z,-2.90
2023-01-29T02:36:12.123Z,-2.80
2023-01-29T02:38:47.504Z,-2.90
2023-01-29T02:41:25.206Z,-2.90
2023-01-29T02:43:55.851Z,-2.80
2023-01-29T02:46:37.690Z,-2.80
2023-01-29T02:49:22.547Z,-2.70
2023-01-29T02:51:55.215Z,-2.80
2023-01-29T02:54:24.702Z,-2.80
2023-01-29T02:56:53.911Z,-2.90
2023-01-29T02:59:23.394Z,-3.00
2023-01-29T03:01:53.268Z,-3.00
2023-01-29T03:04:21.928Z,-3.10
2023-01-29T03:06:54.528Z,-3.10
2023-01-29T03:09:30.998Z,-3.10
2023-01-29T03:12:01.380Z,-3.10
2023-01-29T03:14:54.049Z,-3.10
2023-01-29T03:17:22.658Z,-3.10
2023-01-29T03:19:49.257Z,-3.00
2023-01-29T03:22:17.131Z,-3.10
2023-01-29T03:25:09.447Z,-3.00
2023-01-29T03:27:59.669Z,-3.00
2023-01-29T03:30:45.551Z,-3.00
2023-01-29T03:33:13.249Z,-2.90
2023-01-29T03:35:48.374Z,-2.70
2023-01-29T03:38:15.810Z,-2.60
2023-01-29T03:40:45.430Z,-2.50
2023-01-29T03:43:20.835Z,-2.40
2023-01-29T03:45:47.423Z,-2.30
2023-01-29T03:48:13.922Z,-2.20
2023-01-29T03:50:59.284Z,-2.10
2023-01-29T03:53:44.033Z,-2.10
2023-01-29T03:56:34.499Z,-2.10
2023-01-29T03:59:03.602Z,-2.20
2023-01-29T04:01:40.331Z,-2.30
2023-01-29T04:04:14.479Z,-2.30
2023-01-29T04:06:43.220Z,-2.40
2023-01-29T04:09:22.050Z,-2.50
2023-01-29T04:12:11.614Z,-2.50
2023-01-29T04:14:38.690Z,-2.50
2023-01-29T04:17:14.718Z,-2.60
2023-01-29T04:19:41.338Z,-2.70
2023-01-29T04:22:14.114Z,-2.70
2023-01-29T04:24:41.188Z,-2.70
2023-01-29T04:27:21.130Z,-2.70
2023-01-29T04:29:47.593Z,-2.70
2023-01-29T04:32:17.178Z,-2.70
2023-01-29T04:34:43.635Z,-2.60
2023-01-29T04:37:21.031Z,-2.50
2023-01-29T04:40:03.406Z,-2.50
2023-01-29T04:42:32.297Z,-2.40
2023-01-29T04:45:17.946Z,-2.40
2023-01-29T04:47:58.336Z,-2.30
2023-01-29T04:50:43.505Z,-2.30
2023-01-29T04:53:15.156Z,-2.30
2023-01-29T04:55:51.717Z,-2.30
2023-01-29T04:58:26.307Z,-2.40
2023-01-29T05:00:53.594Z,-2.30
2023-01-29T05:03:21.879Z,-2.40
2023-01-29T05:05:48.831Z,-2.50
2023-01-29T05:08:17.407Z,-2.50
2023-01-29T05:10:44.822Z,-2.50
2023-01-29T05:13:13.461Z,-2.50
2023-01-29T05:15:43.239Z,-2.40
2023-01-29T05:18:10.159Z,-2.40
2023-01-29T05:20:39.091Z,-2.40
2023-01-29T05:23:09.611Z,-2.40
2023-01-29T05:25:36.184Z,-2.30
2023-01-29T05:28:16.212Z,-2.30
2023-01-29T05:30:44.576Z,-2.30
2023-01-29T05:33:22.230Z,-2.30
2023-01-29T05:35:49.297Z,-2.30
2023-01-29T05:38:16.845Z,-2.30
2023-01-29T05:40:43.449Z,-2.30
2023-01-29T05:43:14.692Z,-2.30
2023-01-29T05:48:15.693Z,-2.30
2023-01-29T05:50:42.189Z,-2.30
2023-01-29T05:53:09.295Z,-2.30
2023-01-29T05:55:35.923Z,-2.30
2023-01-29T05:58:04.783Z,-2.40
2023-01-29T06:00:32.331Z,-2.40
2023-01-29T06:02:59.092Z,-2.50
2023-01-29T06:05:25.721Z,-2.50
2023-01-29T06:07:52.352Z,-2.50
2023-01-29T06:10:19.288Z,-2.50
2023-01-29T06:12:46.055Z,-2.50
2023-01-29T06:15:12.921Z,-2.50
2023-01-29T06:17:39.609Z,-2.50
2023-01-29T06:20:06.422Z,-2.50
2023-01-29T06:22:33.293Z,-2.50
2023-01-29T06:24:59.778Z,-2.40
2023-01-29T06:27:26.415Z,-2.40
2023-01-29T06:29:52.947Z,-2.40
2023-01-29T06:32:19.607Z,-2.50
2023-01-29T06:34:48.655Z,-2.50
2023-01-29T06:37:16.151Z,-2.50
2023-01-29T06:39:42.777Z,-2.50
2023-01-29T06:42:10.058Z,-2.50
2023-01-29T06:44:36.774Z,-2.50
2023-01-29T06:47:03.354Z,-2.60
2023-01-29T06:49:29.829Z,-2.60
2023-01-29T06:51:56.475Z,-2.60
2023-01-29T06:54:22.962Z,-2.60
2023-01-29T06:56:49.559Z,-2.60
2023-01-29T06:59:16.151Z,-2.60
2023-01-29T07:01:44.215Z,-2.60
2023-01-29T07:04:11.066Z,-2.60
2023-01-29T07:06:37.627Z,-2.70
2023-01-29T07:09:04.508Z,-2.80
2023-01-29T07:11:31.180Z,-2.90
2023-01-29T07:13:57.753Z,-3.00
2023-01-29T07:16:26.199Z,-3.00
2023-01-29T07:18:53.122Z,-3.00
2023-01-29T07:21:19.747Z,-2.90
2023-01-29T07:23:46.344Z,-2.80
2023-01-29T07:26:12.870Z,-2.60
2023-01-29T07:28:40.054Z,-2.50
2023-01-29T07:31:07.097Z,-2.40
2023-01-29T07:33:33.758Z,-2.30
2023-01-29T07:36:00.324Z,-2.20
2023-01-29T07:38:26.876Z,-2.10
2023-01-29T07:40:53.505Z,-2.00
2023-01-29T07:43:20.043Z,-1.90
2023-01-29T07:45:46.585Z,-1.90
2023-01-29T07:48:13.345Z,-1.80
2023-01-29T07:50:42.272Z,-1.70
2023-01-29T07:53:12.221Z,-1.60
2023-01-29T07:55:38.753Z,-1.50
2023-01-29T07:58:05.294Z,-1.40
2023-01-29T08:00:32.413Z,-1.30
2023-01-29T08:03:03.462Z,-1.20
2023-01-29T08:05:30.153Z,-1.10
2023-01-29T08:08:06.073Z,-1.10
2023-01-29T08:10:33.619Z,-1.10
2023-01-29T08:13:00.951Z,-1.00
2023-01-29T08:15:27.967Z,-1.10
2023-01-29T08:20:41.324Z,-1.10
2023-01-29T08:23:11.208Z,-1.20
2023-01-29T08:25:37.766Z,-1.20
2023-01-29T08:28:04.347Z,-1.20
2023-01-29T08:30:34.999Z,-1.30
2023-01-29T08:33:02.681Z,-1.40
2023-01-29T08:35:29.284Z,-1.30
2023-01-29T08:37:56.705Z,-1.20
2023-01-29T08:40:23.391Z,-1.10
2023-01-29T08:42:49.932Z,-1.00
2023-01-29T08:45:16.681Z,-0.90
2023-01-29T08:47:49.452Z,-0.80
2023-01-29T08:50:19.661Z,-0.70
2023-01-29T08:52:46.327Z,-0.50
2023-01-29T08:55:13.074Z,-0.40
2023-01-29T08:57:39.829Z,-0.50
2023-01-29T09:00:07.189Z,-0.60
2023-01-29T09:02:33.791Z,-0.60
2023-01-29T09:05:00.353Z,-0.70
2023-01-29T09:07:26.910Z,-0.60
2023-01-29T09:09:53.475Z,-0.60
2023-01-29T09:12:19.999Z,-0.60
2023-01-29T09:14:46.479Z,-0.70
2023-01-29T09:17:13.165Z,-0.70
2023-01-29T09:19:39.843Z,-0.80
2023-01-29T09:22:06.629Z,-0.70
2023-01-29T09:24:34.990Z,-0.70
2023-01-29T09:27:01.760Z,-0.60
2023-01-29T09:29:30.311Z,-0.50
2023-01-29T09:31:57.126Z,-0.40
2023-01-29T09:34:23.997Z,-0.30
2023-01-29T09:36:51.977Z,-0.10
2023-01-29T09:39:18.619Z,-0.10
2023-01-29T09:41:52.332Z,0.00
2023-01-29T09:44:31.126Z,-0.10
2023-01-29T09:47:00.239Z,-0.20
2023-01-29T09:49:32.527Z,-0.20
2023-01-29T09:52:03.029Z,-0.30
2023-01-29T09:54:31.920Z,-0.20
2023-01-29T09:56:58.665Z,-0.10
2023-01-29T09:59:27.234Z,-0.10
2023-01-29T10:02:06.160Z,-0.10
2023-01-29T10:04:35.986Z,0.00
2023-01-29T10:07:16.227Z,0.00
2023-01-29T10:09:45.859Z,0.20
2023-01-29T10:12:12.375Z,0.50
2023-01-29T10:14:57.777Z,0.60
2023-01-29T10:17:30.417Z,0.80
2023-01-29T10:20:00.148Z,0.80
2023-01-29T10:22:32.933Z,0.90
2023-01-29T10:25:10.002Z,1.00
2023-01-29T10:27:39.241Z,1.10
2023-01-29T10:30:19.791Z,1.10
2023-01-29T10:32:47.472Z,0.90
2023-01-29T10:35:20.022Z,1.00
2023-01-29T10:37:46.631Z,1.10
2023-01-29T10:40:22.436Z,1.30
2023-01-29T10:42:52.948Z,1.20
2023-01-29T10:45:37.419Z,1.30
2023-01-29T10:48:22.131Z,1.50
2023-01-29T10:50:51.773Z,1.60
2023-01-29T10:53:32.083Z,1.50
2023-01-29T10:56:22.832Z,1.60
2023-01-29T10:58:59.399Z,2.20
2023-01-29T11:01:26.722Z,2.30
2023-01-29T11:04:01.560Z,2.30
2023-01-29T11:06:28.084Z,2.50
2023-01-29T11:09:03.798Z,2.60
2023-01-29T11:11:50.261Z,2.70
2023-01-29T11:14:21.477Z,2.50
2023-01-29T11:19:38.174Z,2.30
2023-01-29T11:22:04.707Z,2.30
2023-01-29T11:24:31.298Z,2.30
2023-01-29T11:26:58.957Z,2.40
2023-01-29T11:29:34.352Z,2.40
2023-01-29T11:32:03.612Z,2.30
2023-01-29T11:34:33.498Z,2.20
2023-01-29T11:37:01.251Z,2.30
2023-01-29T11:39:28.643Z,2.20
2023-01-29T11:42:05.116Z,2.30
2023-01-29T11:44:33.130Z,2.50
2023-01-29T11:49:48.019Z,2.70
2023-01-29T11:52:16.941Z,3.20
2023-01-29T11:54:52.613Z,3.50
2023-01-29T11:57:27.272Z,3.70
2023-01-29T11:59:55.363Z,3.60
2023-01-29T12:02:34.103Z,4.00
2023-01-29T12:05:03.328Z,4.00
2023-01-29T12:07:30.801Z,4.40
2023-01-29T12:09:59.554Z,4.40
2023-01-29T12:12:29.763Z,4.70
2023-01-29T12:15:02.961Z,5.50
2023-01-29T12:17:30.889Z,6.10
2023-01-29T12:20:04.537Z,6.20
2023-01-29T12:22:45.615Z,5.90
2023-01-29T12:25:12.177Z,6.10
2023-01-29T12:27:47.973Z,6.20
2023-01-29T12:30:18.024Z,5.50
2023-01-29T12:32:49.707Z,5.10
2023-01-29T12:35:22.503Z,5.20
2023-01-29T12:37:53.917Z,5.60
2023-01-29T12:40:21.723Z,5.40
2023-01-29T12:42:50.303Z,5.10
2023-01-29T12:45:20.876Z,5.20
2023-01-29T12:47:49.677Z,5.30
2023-01-29T12:50:21.099Z,5.30
2023-01-29T12:52:56.327Z,5.10
2023-01-29T12:55:32.928Z,4.80
2023-01-29T12:58:01.890Z,4.60
2023-01-29T13:00:31.824Z,4.50
2023-01-29T13:02:58.411Z,4.60
2023-01-29T13:05:26.932Z,4.20
2023-01-29T13:08:11.642Z,3.80
2023-01-29T13:10:41.120Z,3.70
2023-01-29T13:13:23.757Z,3.90
2023-01-29T13:15:51.487Z,4.60
2023-01-29T13:18:20.947Z,5.10
2023-01-29T13:20:49.193Z,5.60
2023-01-29T13:23:25.520Z,5.70
2023-01-29T13:25:52.476Z,5.50
2023-01-29T13:28:21.188Z,4.90
2023-01-29T13:31:07.695Z,4.70
2023-01-29T13:33:34.341Z,4.40
2023-01-29T13:36:00.938Z,4.20
2023-01-29T13:38:33.211Z,4.50
2023-01-29T13:41:08.629Z,4.70
2023-01-29T13:43:39.734Z,4.80
2023-01-29T13:46:08.506Z,4.70
2023-01-29T13:48:41.086Z,4.40
2023-01-29T13:51:15.528Z,4.00
2023-01-29T13:53:43.002Z,4.00
2023-01-29T13:56:31.244Z,4.40
2023-01-29T13:58:58.206Z,4.60
2023-01-29T14:01:43.471Z,4.50
2023-01-29T14:04:19.347Z,4.10
2023-01-29T14:06:47.657Z,3.90
2023-01-29T14:09:32.695Z,3.80
2023-01-29T14:11:59.667Z,3.60
2023-01-29T14:14:50.425Z,3.70
2023-01-29T14:17:20.290Z,3.60
2023-01-29T14:19:50.053Z,3.60
2023-01-29T14:22:24.346Z,3.70
2023-01-29T14:24:54.527Z,3.90
2023-01-29T14:27:22.701Z,4.00
2023-01-29T14:29:51.740Z,4.20
2023-01-29T14:32:20.418Z,4.50
2023-01-29T14:35:02.224Z,4.50
2023-01-29T14:37:32.983Z,4.40
2023-01-29T14:40:19.767Z,4.40
2023-01-29T14:43:09.855Z,4.30
2023-01-29T14:45:37.477Z,4.10
2023-01-29T14:48:22.194Z,3.90
2023-01-29T14:50:50.414Z,3.80
2023-01-29T14:53:17.095Z,3.70
2023-01-29T14:55:46.980Z,3.60
2023-01-29T14:58:19.164Z,3.40
2023-01-29T15:00:52.855Z,3.30
2023-01-29T15:03:22.566Z,3.30
2023-01-29T15:05:49.957Z,3.20
2023-01-29T15:08:23.778Z,3.10
2023-01-29T15:11:10.356Z,3.00
2023-01-29T15:13:53.404Z,3.00
2023-01-29T15:16:30.490Z,3.00
2023-01-29T15:19:04.531Z,2.90
2023-01-29T15:21:31.318Z,2.90
2023-01-29T15:24:12.562Z,2.90
2023-01-29T15:26:42.956Z,2.90
2023-01-29T15:29:22.100Z,2.80
2023-01-29T15:31:49.125Z,2.90
2023-01-29T15:34:16.026Z,2.80
2023-01-29T15:36:43.037Z,2.70
2023-01-29T15:39:10.941Z,2.80
2023-01-29T15:41:38.198Z,2.80
2023-01-29T15:44:10.552Z,2.80
2023-01-29T15:46:38.501Z,2.70
2023-01-29T15:49:16.044Z,2.70
2023-01-29T15:51:43.205Z,2.70
2023-01-29T15:54:15.933Z,2.70
2023-01-29T15:56:52.304Z,2.60
2023-01-29T15:59:26.262Z,2.60
2023-01-29T16:01:53.730Z,2.60
2023-01-29T16:04:26.850Z,2.60
2023-01-29T16:06:54.532Z,2.40
2023-01-29T16:09:23.684Z,2.30
2023-01-29T16:11:51.344Z,2.30
2023-01-29T16:14:20.619Z,2.20
2023-01-29T16:16:48.576Z,2.10
2023-01-29T16:19:23.255Z,2.20
2023-01-29T16:21:55.531Z,2.10
2023-01-29T16:24:25.173Z,2.10
2023-01-29T16:26:58.603Z,2.00
2023-01-29T16:29:30.201Z,2.00
2023-01-29T16:32:00.818Z,1.90
2023-01-29T16:34:30.640Z,2.00
2023-01-29T16:36:57.602Z,1.90
2023-01-29T16:39:25.459Z,1.90
2023-01-29T16:42:13.027Z,1.90
2023-01-29T16:44:42.589Z,1.90
2023-01-29T16:47:30.649Z,1.90
2023-01-29T16:50:02.200Z,1.80
2023-01-29T16:52:33.807Z,1.80
2023-01-29T16:55:12.721Z,1.80
2023-01-29T16:57:40.628Z,1.90
2023-01-29T17:00:12.586Z,1.80
2023-01-29T17:02:39.572Z,1.80
2023-01-29T17:05:08.420Z,1.80
2023-01-29T17:07:38.386Z,1.80
2023-01-29T17:10:07.237Z,1.80
2023-01-29T17:12:35.424Z,1.80
2023-01-29T17:15:22.922Z,1.80
2023-01-29T17:17:49.986Z,1.80
2023-01-29T17:20:17.042Z,1.90
2023-01-29T17:22:44.808Z,1.80
2023-01-29T17:25:15.678Z,1.80
2023-01-29T17:27:45.089Z,1.90
2023-01-29T17:30:15.741Z,1.80
2023-01-29T17:32:52.175Z,1.90
2023-01-29T17:35:20.630Z,1.80
2023-01-29T17:37:50.763Z,1.90
2023-01-29T17:40:29.661Z,1.80
2023-01-29T17:42:56.418Z,1.90
2023-01-29T17:45:23.346Z,1.80
2023-01-29T17:47:50.404Z,1.90
2023-01-29T17:50:22.552Z,1.80
2023-01-29T17:52:53.854Z,1.90
2023-01-29T17:55:20.775Z,1.90
2023-01-29T17:57:51.755Z,1.90
2023-01-29T18:00:22.512Z,1.80
2023-01-29T18:02:49.389Z,1.90
2023-01-29T18:05:17.112Z,1.80
2023-01-29T18:07:45.315Z,1.80
2023-01-29T18:10:24.125Z,1.80
2023-01-29T18:12:50.882Z,1.80
2023-01-29T18:15:18.303Z,1.80
2023-01-29T18:17:45.365Z,1.80
2023-01-29T18:20:21.100Z,1.80
2023-01-29T18:22:48.067Z,1.80
2023-01-29T18:25:17.589Z,1.80
2023-01-29T18:27:45.085Z,1.80
2023-01-29T18:30:12.652Z,1.80
2023-01-29T18:32:39.444Z,1.80
2023-01-29T18:35:06.686Z,1.80
2023-01-29T18:37:34.300Z,1.70
2023-01-29T18:40:03.109Z,1.60
2023-01-29T18:42:35.201Z,1.70
2023-01-29T18:45:03.780Z,1.60
2023-01-29T18:47:32.005Z,1.50
2023-01-29T18:49:58.997Z,1.50
2023-01-29T18:52:26.283Z,1.40
2023-01-29T18:54:53.592Z,1.40
2023-01-29T18:58:28.706Z,1.40
2023-01-29T19:00:07.960Z,1.40
2023-01-29T19:02:34.854Z,1.30
2023-01-29T19:05:01.689Z,1.30
2023-01-29T19:07:28.517Z,1.30
2023-01-29T19:09:55.285Z,1.40
2023-01-29T19:12:23.917Z,1.40
2023-01-29T19:14:50.809Z,1.40
2023-01-29T19:17:17.747Z,1.40
2023-01-29T19:19:44.327Z,1.40
2023-01-29T19:22:11.057Z,1.40
2023-01-29T19:24:39.047Z,1.40
2023-01-29T19:27:06.563Z,1.40
2023-01-29T19:29:33.397Z,1.40
2023-01-29T19:32:02.916Z,1.40
2023-01-29T19:34:29.462Z,1.40
2023-01-29T19:36:56.084Z,1.40
2023-01-29T19:39:22.818Z,1.50
2023-01-29T19:41:49.405Z,1.50
2023-01-29T19:44:15.909Z,1.50
2023-01-29T19:46:42.483Z,1.50
2023-01-29T19:49:10.551Z,1.50
2023-01-29T19:51:37.140Z,1.50
2023-01-29T19:54:04.096Z,1.50
2023-01-29T19:56:30.649Z,1.50
2023-01-29T19:58:57.407Z,1.50
2023-01-29T20:01:29.558Z,1.60
2023-01-29T20:03:56.485Z,1.60
2023-01-29T20:06:24.686Z,1.60
2023-01-29T20:08:51.461Z,1.60
2023-01-29T20:11:19.124Z,1.60
2023-01-29T20:13:49.565Z,1.60
2023-01-29T20:16:17.634Z,1.70
2023-01-29T20:18:44.392Z,1.70
2023-01-29T20:21:11.956Z,1.70
2023-01-29T20:23:39.879Z,1.70
2023-01-29T20:26:12.443Z,1.70
2023-01-29T20:28:39.207Z,1.80
2023-01-29T20:31:11.276Z,1.70
2023-01-29T20:33:39.621Z,1.80
2023-01-29T20:36:08.085Z,1.80
2023-01-29T20:38:35.026Z,1.80
2023-01-29T20:41:05.787Z,1.80
2023-01-29T20:43:32.828Z,1.80
2023-01-29T20:45:59.847Z,1.80
2023-01-29T20:48:29.107Z,1.90
2023-01-29T20:50:55.740Z,1.90
2023-01-29T20:53:22.602Z,1.90
2023-01-29T20:55:49.180Z,1.90
2023-01-29T20:58:16.030Z,1.90
2023-01-29T21:00:43.958Z,2.00
2023-01-29T21:03:10.584Z,2.00
2023-01-29T21:05:37.173Z,1.90
2023-01-29T21:08:03.697Z,1.90
2023-01-29T21:10:30.190Z,1.90
2023-01-29T21:12:56.878Z,1.90
2023-01-29T21:15:24.630Z,1.90
2023-01-29T21:17:52.322Z,1.90
2023-01-29T21:20:19.208Z,1.90
2023-01-29T21:22:45.939Z,2.00
2023-01-29T21:25:13.951Z,2.00
2023-01-29T21:27:40.619Z,2.00
2023-01-29T21:30:07.623Z,2.10
2023-01-29T21:32:34.164Z,2.10
2023-01-29T21:35:00.656Z,2.10
2023-01-29T21:37:28.419Z,2.10
2023-01-29T21:39:55.037Z,2.10
2023-01-29T21:42:40.285Z,2.20
2023-01-29T21:45:09.480Z,2.20
2023-01-29T21:47:36.004Z,2.20
2023-01-29T21:50:02.996Z,2.20
2023-01-29T21:52:29.863Z,2.20
2023-01-29T21:54:59.083Z,2.30
2023-01-29T21:57:31.284Z,2.30
2023-01-29T21:59:59.399Z,2.30
2023-01-29T22:02:27.646Z,2.30
2023-01-29T22:05:08.677Z,2.30
2023-01-29T22:07:44.742Z,2.40
2023-01-29T22:10:12.307Z,2.40
2023-01-29T22:12:39.914Z,2.40
2023-01-29T22:15:07.257Z,2.50
2023-01-29T22:17:34.362Z,2.50
2023-01-29T22:20:01.244Z,2.60
2023-01-29T22:22:28.088Z,2.60
2023-01-29T22:24:56.392Z,2.60
2023-01-29T22:27:26.399Z,2.70
2023-01-29T22:29:53.321Z,2.70
2023-01-29T22:32:20.196Z,2.70
2023-01-29T22:34:47.055Z,2.70
2023-01-29T22:37:13.868Z,2.70
2023-01-29T22:39:40.656Z,2.80
2023-01-29T22:42:08.042Z,2.70
2023-01-29T22:44:35.005Z,2.70
2023-01-29T22:47:01.936Z,2.60
2023-01-29T22:49:30.083Z,2.60
2023-01-29T22:52:12.351Z,2.60
2023-01-29T22:54:40.374Z,2.70
2023-01-29T22:57:10.187Z,2.70
2023-01-29T22:59:37.446Z,2.70
2023-01-29T23:02:04.357Z,2.80
2023-01-29T23:04:33.818Z,2.80
2023-01-29T23:07:00.716Z,2.80
2023-01-29T23:09:27.534Z,2.80
2023-01-29T23:11:54.359Z,2.80
2023-01-29T23:14:21.176Z,2.80
2023-01-29T23:16:48.018Z,2.90
2023-01-29T23:19:17.505Z,3.00
2023-01-29T23:21:44.341Z,3.10
2023-01-29T23:24:11.542Z,3.10
2023-01-29T23:27:00.185Z,3.10
2023-01-29T23:29:27.011Z,3.20
2023-01-29T23:31:56.617Z,3.30
2023-01-29T23:34:25.883Z,3.30
2023-01-29T23:36:52.614Z,3.40
2023-01-29T23:39:20.439Z,3.40
2023-01-29T23:41:49.504Z,3.40
2023-01-29T23:44:16.363Z,3.50
2023-01-29T23:46:43.403Z,3.50
2023-01-29T23:49:10.247Z,3.50
2023-01-29T23:51:37.005Z,3.50
2023-01-29T23:54:04.133Z,3.50
2023-01-29T23:56:30.849Z,3.50
2023-01-29T23:58:58.227Z,3.50
